Time;durP1;ratioP1;P1;durP2;ratioP2;P2;SDS_P1;SDS_P2;PMS_P1;PMS_P2;Temp;Humidity;BMP_temperature;BMP_pressure;BME280_temperature;BME280_humidity;BME280_pressure;Samples;Min_cycle;Max_cycle;Signal;HPM_P1;HPM_P2
2023/01/24 00:01:59;;;;;;;;;40.75;24.75;;;;;3.43;66.49;103068.81;5076951;28;45378;-55
2023/01/24 00:04:24;;;;;;;;;32.00;26.25;;;;;3.49;65.77;103070.38;5077457;28;46109;-53
2023/01/24 00:06:50;;;;;;;;;76.75;57.50;;;;;3.53;66.52;103071.16;5077713;28;45425;-58
2023/01/24 00:09:15;;;;;;;;;31.50;26.00;;;;;3.53;65.47;103058.00;5077945;28;45443;-57
2023/01/24 00:11:40;;;;;;;;;31.00;27.25;;;;;3.56;65.21;103064.06;5077858;28;45439;-61
2023/01/24 00:14:05;;;;;;;;;35.25;27.00;;;;;3.56;66.37;103065.81;5077484;28;46324;-56
2023/01/24 00:16:31;;;;;;;;;43.00;27.00;;;;;3.50;66.74;103061.63;5077518;28;46741;-59
2023/01/24 00:18:56;;;;;;;;;34.75;30.50;;;;;3.45;65.81;103066.13;5077765;28;45325;-58
2023/01/24 00:21:23;;;;;;;;;45.00;28.50;;;;;3.44;66.85;103072.28;5076314;28;45521;-55
2023/01/24 00:23:54;;;;;;;;;42.00;28.25;;;;;3.42;66.61;103072.34;5077341;28;45481;-61
2023/01/24 00:26:21;;;;;;;;;42.25;30.75;;;;;3.41;67.03;103068.00;5077542;28;45356;-59
2023/01/24 00:28:47;;;;;;;;;25.00;17.50;;;;;3.42;66.39;103071.50;5077369;28;45433;-57
2023/01/24 00:31:13;;;;;;;;;39.50;24.00;;;;;3.37;66.32;103057.59;5077559;28;45400;-59
2023/01/24 00:33:38;;;;;;;;;48.50;26.00;;;;;3.41;66.79;103068.00;5077202;28;47266;-56
2023/01/24 00:36:04;;;;;;;;;41.50;26.75;;;;;3.40;67.12;103057.50;5077284;28;45338;-59
2023/01/24 00:38:30;;;;;;;;;40.00;33.50;;;;;3.42;67.33;103059.19;5077052;28;45320;-61
2023/01/24 00:40:56;;;;;;;;;47.75;34.00;;;;;3.40;66.55;103046.97;5077494;28;45490;-60
2023/01/24 00:43:22;;;;;;;;;25.50;22.50;;;;;3.37;67.27;103042.69;5076195;28;45277;-50
2023/01/24 00:45:48;;;;;;;;;39.25;33.00;;;;;3.44;66.90;103046.00;5077138;28;45385;-61
2023/01/24 00:48:14;;;;;;;;;40.75;29.50;;;;;3.48;66.46;103045.00;5077108;28;45411;-58
2023/01/24 00:50:40;;;;;;;;;42.00;29.50;;;;;3.50;67.09;103048.47;5077169;28;45479;-54
2023/01/24 00:53:05;;;;;;;;;43.75;29.00;;;;;3.42;66.54;103032.88;5076940;28;46156;-59
2023/01/24 00:55:31;;;;;;;;;37.50;31.00;;;;;3.53;67.27;103050.13;5077185;28;45453;-60
2023/01/24 00:57:57;;;;;;;;;43.75;33.50;;;;;3.59;66.87;103058.72;5076986;28;45387;-48
2023/01/24 01:00:22;;;;;;;;;36.25;31.75;;;;;3.63;66.95;103060.34;5077057;28;45514;-58
2023/01/24 01:02:49;;;;;;;;;55.50;33.50;;;;;3.61;66.73;103040.22;5076658;28;45980;-54
2023/01/24 01:05:15;;;;;;;;;41.00;30.25;;;;;3.64;66.66;103041.00;5076885;28;45639;-61
2023/01/24 01:07:40;;;;;;;;;36.75;21.50;;;;;3.69;67.12;103057.50;5076691;28;45328;-56
2023/01/24 01:10:06;;;;;;;;;18.00;17.00;;;;;3.70;66.70;103061.00;5058915;28;45468;-60
2023/01/24 01:12:31;;;;;;;;;45.50;34.75;;;;;3.70;66.33;103061.00;5076564;28;46162;-61
2023/01/24 01:14:56;;;;;;;;;43.25;32.50;;;;;3.71;65.97;103071.50;5074784;28;45416;-58
2023/01/24 01:17:22;;;;;;;;;37.75;26.75;;;;;3.67;66.24;103061.97;5076889;28;45349;-46
2023/01/24 01:19:51;;;;;;;;;42.25;31.25;;;;;3.65;65.94;103063.78;5076760;28;45518;-58
2023/01/24 01:22:17;;;;;;;;;43.00;32.00;;;;;3.63;65.84;103070.88;5076362;28;47320;-53
2023/01/24 01:24:42;;;;;;;;;42.00;25.00;;;;;3.63;65.79;103070.88;5076494;28;45349;-50
2023/01/24 01:27:08;;;;;;;;;32.75;25.75;;;;;3.61;66.34;103072.66;5076703;28;45369;-61
2023/01/24 01:29:34;;;;;;;;;29.25;23.25;;;;;3.65;65.63;103076.09;5076532;28;45236;-45
2023/01/24 01:32:00;;;;;;;;;42.00;30.50;;;;;3.63;65.94;103070.00;5075764;28;45512;-60
2023/01/24 01:34:25;;;;;;;;;40.25;30.25;;;;;3.62;66.31;103071.75;5076267;28;45418;-61
2023/01/24 01:36:50;;;;;;;;;31.00;27.00;;;;;3.63;66.00;103072.66;5076259;28;45162;-59
2023/01/24 01:39:16;;;;;;;;;44.25;32.75;;;;;3.61;65.98;103070.03;5076814;28;45352;-59
2023/01/24 01:41:41;;;;;;;;;37.50;24.50;;;;;3.56;66.07;103066.69;5075993;28;46254;-60
2023/01/24 01:44:40;;;;;;;;;39.75;31.75;;;;;3.60;65.97;103076.22;5076199;28;45393;-60
2023/01/24 01:47:34;;;;;;;;;39.75;32.50;;;;;3.62;66.33;103094.59;5076503;28;45450;-60
2023/01/24 01:50:14;;;;;;;;;36.75;28.75;;;;;3.59;66.08;103069.22;5076507;28;45515;-58
2023/01/24 01:52:42;;;;;;;;;39.50;34.00;;;;;3.43;66.46;103041.63;5075677;28;47065;-53
2023/01/24 01:55:20;;;;;;;;;47.25;27.50;;;;;3.61;66.50;103067.41;5076515;28;45695;-59
2023/01/24 01:57:48;;;;;;;;;43.25;30.75;;;;;3.59;66.96;103063.97;5076023;28;45453;-53
2023/01/24 02:00:19;;;;;;;;;50.75;32.00;;;;;3.65;67.52;103076.09;5076269;28;45219;-58
2023/01/24 02:02:54;;;;;;;;;35.00;24.50;;;;;3.67;67.42;103083.03;5075915;28;45466;-59
2023/01/24 02:05:24;;;;;;;;;42.50;32.75;;;;;3.68;66.71;103076.00;5075948;28;45275;-59
2023/01/24 02:08:12;;;;;;;;;40.25;34.00;;;;;3.65;66.79;103079.56;5075661;28;45266;-56
2023/01/24 02:13:23;;;;;;;;;47.25;34.50;;;;;3.69;67.41;103088.25;5075835;28;45391;-61
2023/01/24 02:16:02;;;;;;;;;36.25;24.50;;;;;3.67;67.13;103092.72;5075473;28;45443;-60
2023/01/24 02:18:28;;;;;;;;;41.75;28.75;;;;;3.64;66.19;103079.63;5075999;28;45384;-58
2023/01/24 02:20:54;;;;;;;;;45.00;33.75;;;;;3.67;67.13;103087.44;5076030;28;45361;-59
2023/01/24 02:23:36;;;;;;;;;41.50;30.00;;;;;3.56;66.30;103073.72;5075550;28;45396;-60
2023/01/24 02:26:07;;;;;;;;;53.25;40.25;;;;;3.68;66.57;103097.06;5077036;28;45427;-59
2023/01/24 02:28:33;;;;;;;;;54.50;33.00;;;;;3.67;66.87;103090.06;5079325;28;45842;-54
2023/01/24 02:30:59;;;;;;;;;53.50;31.25;;;;;3.67;67.32;103084.81;5079025;28;45626;-62
2023/01/24 02:33:25;;;;;;;;;40.50;34.25;;;;;3.66;66.60;103077.78;5078976;28;46525;-62
2023/01/24 02:35:51;;;;;;;;;49.75;37.00;;;;;3.67;66.99;103072.50;5078486;28;45364;-61
2023/01/24 02:38:25;;;;;;;;;45.00;34.25;;;;;3.64;66.53;103083.13;5078879;28;45383;-57
2023/01/24 02:40:55;;;;;;;;;41.00;30.25;;;;;3.66;67.10;103083.91;5079442;28;45308;-52
2023/01/24 02:43:25;;;;;;;;;41.75;32.50;;;;;3.63;67.25;103070.88;5078978;28;45412;-54
2023/01/24 02:45:51;;;;;;;;;44.25;31.75;;;;;3.62;66.06;103074.38;5079003;28;45541;-61
2023/01/24 02:48:16;;;;;;;;;38.50;34.00;;;;;3.59;66.98;103079.75;5079109;28;45404;-59
2023/01/24 02:53:31;;;;;;;;;39.75;35.00;;;;;3.52;66.90;103072.94;5078620;28;45341;-59
2023/01/24 02:58:49;;;;;;;;;50.00;36.75;;;;;3.53;65.84;103085.19;5078893;28;45355;-62
2023/01/24 03:01:15;;;;;;;;;46.75;32.00;;;;;3.51;66.15;103076.50;5078883;28;45444;-60
2023/01/24 03:03:45;;;;;;;;;56.25;34.50;;;;;3.50;66.84;103074.78;5078597;28;45343;-60
2023/01/24 03:06:12;;;;;;;;;48.25;41.00;;;;;3.49;66.12;103071.25;5078548;28;45439;-57
2023/01/24 03:08:38;;;;;;;;;47.25;37.75;;;;;3.50;66.70;103077.41;5078923;28;45439;-60
2023/01/24 03:11:04;;;;;;;;;43.00;35.50;;;;;3.51;65.99;103065.97;5079049;28;45361;-54
2023/01/24 03:35:23;;;;;;;;;56.25;36.00;;;;;3.31;67.24;103052.50;5078158;28;45558;-56
2023/01/24 03:40:33;;;;;;;;;44.75;34.00;;;;;3.44;66.70;103072.28;5078436;28;45309;-61
2023/01/24 03:42:59;;;;;;;;;47.50;34.50;;;;;3.45;66.77;103079.28;5078644;28;45324;-59
2023/01/24 03:45:34;;;;;;;;;23.00;20.25;;;;;3.45;66.75;103087.16;5078041;28;46220;-60
2023/01/24 03:48:12;;;;;;;;;49.50;35.00;;;;;3.44;66.62;103077.56;5078039;28;45422;-56
2023/01/24 03:53:26;;;;;;;;;44.50;32.50;;;;;3.41;66.06;103085.53;5078286;28;45439;-61
2023/01/24 03:55:53;;;;;;;;;44.00;32.25;;;;;3.38;66.71;103085.63;5077900;28;46201;-60
2023/01/24 03:58:18;;;;;;;;;53.50;32.50;;;;;3.35;66.81;103081.31;5078174;28;45365;-60
2023/01/24 04:00:44;;;;;;;;;28.25;22.75;;;;;3.37;66.35;103086.53;5077748;28;45499;-56
2023/01/24 04:03:09;;;;;;;;;51.75;38.25;;;;;3.37;66.63;103082.16;5078381;28;45416;-59
2023/01/24 04:05:35;;;;;;;;;56.50;37.50;;;;;3.40;66.74;103094.34;5077836;28;45357;-61
2023/01/24 04:08:01;;;;;;;;;42.50;37.75;;;;;3.40;66.39;103082.03;5077458;28;45430;-61
2023/01/24 04:10:26;;;;;;;;;47.00;38.25;;;;;3.44;67.31;103081.03;5078029;28;45392;-59
2023/01/24 04:12:53;;;;;;;;;47.75;37.75;;;;;3.44;66.65;103088.09;5077645;28;45444;-61
2023/01/24 04:15:28;;;;;;;;;55.75;42.75;;;;;3.42;66.30;103082.88;5077368;28;46180;-60
2023/01/24 04:17:58;;;;;;;;;47.50;34.00;;;;;3.42;66.23;103088.13;5077513;28;45445;-54
2023/01/24 04:20:25;;;;;;;;;47.75;29.75;;;;;3.42;66.88;103089.91;5059348;28;45418;-59
2023/01/24 04:22:50;;;;;;;;;56.25;33.50;;;;;3.41;67.29;103075.91;5077767;28;45420;-60
2023/01/24 04:25:16;;;;;;;;;41.75;33.75;;;;;3.39;66.86;103082.94;5077222;28;46062;-59
2023/01/24 04:27:41;;;;;;;;;37.50;27.75;;;;;3.38;67.15;103070.72;5076308;28;45436;-59
2023/01/24 04:30:09;;;;;;;;;46.25;31.25;;;;;3.38;67.40;103078.59;5077262;28;45329;-60
2023/01/24 04:32:35;;;;;;;;;46.50;36.00;;;;;3.40;66.94;103081.19;5077342;28;45571;-62
2023/01/24 04:35:02;;;;;;;;;39.50;29.50;;;;;3.40;67.06;103082.03;5077228;28;46410;-59
2023/01/24 04:37:28;;;;;;;;;49.50;35.50;;;;;3.40;67.36;103081.19;5077133;28;45319;-56
2023/01/24 04:39:53;;;;;;;;;39.75;32.25;;;;;3.41;67.42;103089.06;5077248;28;45300;-58
2023/01/24 04:42:19;;;;;;;;;43.50;36.25;;;;;3.43;66.49;103091.63;5077466;28;45305;-61
2023/01/24 04:44:44;;;;;;;;;50.00;34.00;;;;;3.41;66.64;103085.53;5077034;28;46023;-59
2023/01/24 04:47:09;;;;;;;;;53.25;41.00;;;;;3.43;66.58;103094.25;5076891;28;45467;-58
2023/01/24 04:49:35;;;;;;;;;43.00;33.75;;;;;3.43;67.58;103095.13;5076375;28;45313;-61
2023/01/24 04:52:00;;;;;;;;;43.50;33.25;;;;;3.43;67.25;103089.84;5077014;28;45469;-61
2023/01/24 04:54:25;;;;;;;;;42.50;32.75;;;;;3.42;66.58;103090.78;5076797;28;45605;-63
2023/01/24 04:56:51;;;;;;;;;43.25;33.50;;;;;3.41;67.22;103086.41;5076993;28;45336;-61
2023/01/24 04:59:16;;;;;;;;;46.50;31.75;;;;;3.31;67.46;103079.66;5076863;28;45455;-61
2023/01/24 05:01:41;;;;;;;;;38.75;33.50;;;;;3.38;67.29;103096.16;5077093;28;45453;-59
2023/01/24 05:04:07;;;;;;;;;37.50;29.75;;;;;3.38;67.18;103097.03;5076728;28;45266;-59
2023/01/24 05:06:33;;;;;;;;;49.25;34.50;;;;;3.37;67.06;103100.56;5076613;28;45487;-58
2023/01/24 05:08:59;;;;;;;;;37.25;26.25;;;;;3.28;66.93;103098.16;5076810;28;45407;-60
2023/01/24 05:11:25;;;;;;;;;44.25;32.25;;;;;3.31;66.95;103103.34;5077009;28;45425;-60
2023/01/24 05:13:50;;;;;;;;;48.25;34.00;;;;;3.30;67.75;103112.16;5076565;28;46119;-55
2023/01/24 05:16:16;;;;;;;;;46.50;33.75;;;;;3.30;67.81;103109.53;5076378;28;45412;-60
2023/01/24 05:18:42;;;;;;;;;39.75;31.00;;;;;3.31;67.63;103107.75;5076725;28;45409;-59
2023/01/24 05:21:10;;;;;;;;;45.75;29.50;;;;;3.34;67.01;103110.31;5076359;28;45566;-60
2023/01/24 05:23:35;;;;;;;;;42.75;33.75;;;;;3.33;67.88;103104.19;5058156;28;47095;-62
2023/01/24 05:26:02;;;;;;;;;44.00;30.75;;;;;3.34;67.29;103111.16;5076643;28;45313;-61
2023/01/24 05:28:27;;;;;;;;;45.50;34.00;;;;;3.34;68.37;103115.56;5076439;28;45338;-58
2023/01/24 05:30:57;;;;;;;;;41.75;30.75;;;;;3.35;67.03;103110.25;5076665;28;45396;-61
2023/01/24 05:33:22;;;;;;;;;46.75;29.50;;;;;3.36;67.37;103116.38;5076259;28;46422;-60
2023/01/24 05:35:47;;;;;;;;;32.75;28.00;;;;;3.34;67.17;103110.31;5075378;28;45409;-60
2023/01/24 05:38:13;;;;;;;;;36.00;27.75;;;;;3.34;67.36;103116.44;5076244;28;45304;-53
2023/01/24 05:40:38;;;;;;;;;46.00;33.50;;;;;3.36;67.13;103116.38;5076798;28;45468;-55
2023/01/24 05:43:05;;;;;;;;;44.00;27.75;;;;;3.37;67.69;103118.97;5076145;28;45373;-55
2023/01/24 05:45:31;;;;;;;;;40.00;26.75;;;;;3.37;66.90;103118.09;5076045;28;45416;-59
2023/01/24 05:47:56;;;;;;;;;46.50;34.00;;;;;3.37;67.63;103112.84;5076148;28;45344;-50
2023/01/24 05:50:21;;;;;;;;;61.75;35.50;;;;;3.36;67.68;103122.50;5076385;28;45458;-61
2023/01/24 05:52:47;;;;;;;;;33.00;25.50;;;;;3.36;67.17;103126.91;5075691;28;53071;-62
2023/01/24 05:55:12;;;;;;;;;42.00;30.25;;;;;3.34;67.03;103128.72;5075858;28;45425;-58
2023/01/24 05:57:37;;;;;;;;;49.00;28.25;;;;;3.28;67.87;103121.84;5076249;28;45641;-58
2023/01/24 06:00:04;;;;;;;;;47.75;36.00;;;;;3.15;68.10;103099.41;5074965;28;45443;-61
2023/01/24 06:02:30;;;;;;;;;39.00;32.75;;;;;3.27;67.52;103125.38;5075250;28;45403;-52
2023/01/24 06:04:55;;;;;;;;;43.75;30.50;;;;;3.26;68.15;103128.91;5075704;28;45480;-60
2023/01/24 06:07:20;;;;;;;;;45.75;31.50;;;;;3.25;68.11;103120.16;5075869;28;45427;-60
2023/01/24 06:09:45;;;;;;;;;30.00;21.00;;;;;3.20;66.85;103114.19;5076199;28;45349;-62
2023/01/24 06:12:11;;;;;;;;;42.75;27.75;;;;;3.22;67.39;103122.88;5075390;28;50502;-46
2023/01/24 06:14:36;;;;;;;;;49.50;41.25;;;;;3.19;68.18;103115.06;5076062;28;45198;-60
2023/01/24 06:17:01;;;;;;;;;35.75;24.50;;;;;3.23;67.76;103134.25;5075525;28;45349;-60
2023/01/24 06:19:27;;;;;;;;;52.75;40.25;;;;;3.24;68.14;103136.88;5075973;28;45378;-56
2023/01/24 06:22:08;;;;;;;;;41.50;28.50;;;;;3.26;68.11;103136.81;5075322;28;46313;-60
2023/01/24 06:24:34;;;;;;;;;46.75;30.25;;;;;3.24;67.91;103133.34;5075608;28;45506;-59
2023/01/24 06:26:59;;;;;;;;;42.50;27.25;;;;;3.25;67.60;103127.19;5075610;28;45490;-59
2023/01/24 06:29:25;;;;;;;;;39.00;31.75;;;;;3.27;67.67;103138.53;5075809;28;45375;-61
2023/01/24 06:32:03;;;;;;;;;37.75;26.75;;;;;3.28;68.17;103136.75;5075030;28;47148;-61
2023/01/24 06:34:43;;;;;;;;;38.50;34.00;;;;;3.27;68.12;103124.53;5075392;28;45483;-59
2023/01/24 06:37:14;;;;;;;;;38.00;28.75;;;;;3.31;68.07;103128.78;5075470;28;45309;-57
2023/01/24 06:39:45;;;;;;;;;43.75;31.00;;;;;3.28;67.92;103123.59;5075663;28;45401;-59
2023/01/24 06:42:12;;;;;;;;;44.00;34.25;;;;;3.34;68.61;103137.47;5057884;28;48258;-58
2023/01/24 06:44:37;;;;;;;;;49.25;30.75;;;;;3.36;68.36;103137.41;5075617;28;45329;-53
2023/01/24 06:47:02;;;;;;;;;39.25;33.75;;;;;3.36;68.35;103142.69;5075388;28;45377;-57
2023/01/24 06:49:28;;;;;;;;;46.25;35.25;;;;;3.34;68.48;103149.78;5074230;28;45781;-45
2023/01/24 06:51:53;;;;;;;;;55.50;37.25;;;;;3.34;68.05;103149.78;5074985;28;46438;-59
2023/01/24 06:54:18;;;;;;;;;45.00;39.50;;;;;3.34;67.91;103145.38;5074967;28;50279;-57
2023/01/24 06:56:44;;;;;;;;;62.50;39.00;;;;;3.30;68.16;103138.47;5075352;28;45375;-56
2023/01/24 06:59:09;;;;;;;;;47.50;33.00;;;;;3.37;68.35;103152.28;5075585;28;45400;-58
2023/01/24 07:01:35;;;;;;;;;48.25;36.75;;;;;3.36;68.73;103148.81;5074592;28;52696;-52
2023/01/24 07:04:00;;;;;;;;;47.00;37.50;;;;;3.34;67.94;103153.25;5074917;28;48800;-58
2023/01/24 07:06:26;;;;;;;;;44.75;34.75;;;;;3.37;68.72;103155.81;5075360;28;45965;-51
2023/01/24 07:08:52;;;;;;;;;47.50;35.00;;;;;3.34;68.34;103157.66;5075345;28;45476;-59
2023/01/24 07:11:17;;;;;;;;;68.50;41.50;;;;;3.37;68.07;103162.81;5075334;28;47243;-56
2023/01/24 07:13:42;;;;;;;;;47.25;38.25;;;;;3.34;68.11;103148.00;5078358;28;45421;-58
2023/01/24 07:16:08;;;;;;;;;55.00;40.50;;;;;3.39;68.41;103158.41;5078644;28;45418;-58
2023/01/24 07:18:33;;;;;;;;;50.50;32.50;;;;;3.38;68.04;103159.31;5078702;28;45326;-60
2023/01/24 07:20:59;;;;;;;;;55.00;39.75;;;;;3.40;68.26;103155.72;5078097;28;46076;-58
2023/01/24 07:23:31;;;;;;;;;58.00;44.50;;;;;3.39;67.79;103161.03;5078510;28;46027;-51
2023/01/24 07:25:56;;;;;;;;;44.00;32.25;;;;;3.35;68.85;103157.59;5078473;28;45909;-49
2023/01/24 07:28:22;;;;;;;;;40.75;34.50;;;;;3.34;67.75;103166.41;5078761;28;45564;-51
2023/01/24 07:30:48;;;;;;;;;53.50;38.75;;;;;3.31;68.70;103169.13;5078235;28;47681;-60
2023/01/24 07:33:14;;;;;;;;;55.00;43.00;;;;;3.30;68.82;103175.28;5078063;28;45436;-59
2023/01/24 07:35:41;;;;;;;;;50.50;36.25;;;;;3.32;68.22;103178.72;5077652;28;45483;-57
2023/01/24 07:38:06;;;;;;;;;56.00;40.50;;;;;3.28;68.70;103177.09;5076247;28;45428;-53
2023/01/24 07:40:32;;;;;;;;;49.00;40.75;;;;;3.32;68.48;103188.38;5078096;28;45668;-53
2023/01/24 07:43:03;;;;;;;;;51.75;35.75;;;;;3.31;68.32;103173.53;5077924;28;45321;-57
2023/01/24 07:45:30;;;;;;;;;10.50;6.00;;;;;3.29;68.69;103176.19;5077657;28;45373;-59
2023/01/24 07:47:57;;;;;;;;;57.00;43.25;;;;;3.33;69.01;103187.47;5078053;28;45484;-58
2023/01/24 07:50:23;;;;;;;;;59.00;41.75;;;;;3.35;69.12;103188.31;5077412;28;45398;-60
2023/01/24 07:52:52;;;;;;;;;65.75;45.00;;;;;3.33;69.03;103187.47;5076484;28;45445;-54
2023/01/24 07:55:19;;;;;;;;;57.25;42.25;;;;;3.38;68.59;103197.00;5075089;28;45438;-56
2023/01/24 07:57:44;;;;;;;;;62.75;46.00;;;;;3.42;69.30;103195.16;5074618;28;45991;-55
2023/01/24 08:00:10;;;;;;;;;49.25;42.00;;;;;3.38;68.85;103196.13;5074841;28;46102;-54
2023/01/24 08:02:35;;;;;;;;;48.75;33.25;;;;;3.43;68.71;103203.00;5056429;28;46040;-46
2023/01/24 08:05:01;;;;;;;;;53.00;37.75;;;;;3.43;68.77;103200.38;5074753;28;45981;-54
2023/01/24 08:07:26;;;;;;;;;60.25;36.75;;;;;3.32;68.61;103185.75;5075232;28;46465;-56
2023/01/24 08:09:52;;;;;;;;;58.50;37.50;;;;;3.42;68.79;103203.91;5074783;28;46058;-51
2023/01/24 08:12:17;;;;;;;;;57.00;40.75;;;;;3.36;68.45;103197.94;5074802;28;45467;-58
2023/01/24 08:14:43;;;;;;;;;68.75;50.75;;;;;3.43;68.88;103213.53;5074414;28;45622;-51
2023/01/24 08:17:09;;;;;;;;;64.75;42.00;;;;;3.45;68.66;103211.69;5074766;28;45380;-58
2023/01/24 08:19:35;;;;;;;;;65.50;43.25;;;;;3.47;68.42;103206.41;5074831;28;45515;-53
2023/01/24 08:22:01;;;;;;;;;46.00;36.75;;;;;3.49;68.96;103212.50;5074462;28;45851;-46
2023/01/24 08:24:26;;;;;;;;;56.00;41.50;;;;;3.49;69.17;103213.34;5072961;28;45829;-56
2023/01/24 08:26:52;;;;;;;;;53.25;37.75;;;;;3.47;68.75;103203.78;5073769;28;45583;-58
2023/01/24 08:29:17;;;;;;;;;43.00;35.25;;;;;3.46;68.78;103209.97;5072649;28;46500;-57
2023/01/24 08:31:43;;;;;;;;;64.75;41.75;;;;;3.36;68.79;103183.00;5074710;28;46579;-61
2023/01/24 08:34:09;;;;;;;;;54.50;46.50;;;;;3.48;69.13;103208.13;5074400;28;45982;-57
2023/01/24 08:36:35;;;;;;;;;52.75;43.50;;;;;3.54;68.70;103220.25;5056019;28;45489;-52
2023/01/24 08:39:02;;;;;;;;;58.75;42.25;;;;;3.57;69.36;103212.28;5074474;28;46245;-51
2023/01/24 08:41:28;;;;;;;;;48.00;37.25;;;;;3.53;68.78;103208.88;5074191;28;45448;-60
2023/01/24 08:43:53;;;;;;;;;45.75;33.00;;;;;3.58;68.88;103225.44;5074472;28;45382;-49
2023/01/24 08:46:19;;;;;;;;;47.75;35.25;;;;;3.59;68.91;103226.28;5055739;28;45899;-45
2023/01/24 08:48:44;;;;;;;;;51.50;36.00;;;;;3.57;68.27;103231.56;5073898;28;47370;-52
2023/01/24 08:51:09;;;;;;;;;60.75;44.00;;;;;3.61;68.37;103235.84;5074087;28;45409;-59
2023/01/24 08:53:35;;;;;;;;;73.25;42.50;;;;;3.55;68.13;103222.88;5073961;28;45536;-55
2023/01/24 08:56:00;;;;;;;;;52.50;40.50;;;;;3.48;68.36;103214.25;5074418;28;45539;-54
2023/01/24 08:58:26;;;;;;;;;58.00;38.25;;;;;3.69;68.69;103241.78;5073428;28;45997;-58
2023/01/24 09:00:51;;;;;;;;;57.00;44.75;;;;;3.70;68.75;103242.63;5074191;28;45463;-52
2023/01/24 09:03:18;;;;;;;;;54.50;43.25;;;;;3.72;69.18;103238.22;5072957;28;45549;-57
2023/01/24 09:05:43;;;;;;;;;52.25;39.25;;;;;3.77;67.77;103241.59;5073955;28;45518;-57
2023/01/24 09:08:09;;;;;;;;;48.00;37.75;;;;;3.78;68.61;103253.84;5073856;28;47751;-54
2023/01/24 09:10:35;;;;;;;;;67.25;44.50;;;;;3.81;68.13;103237.97;5073462;28;45682;-56
2023/01/24 09:13:02;;;;;;;;;59.75;39.50;;;;;3.85;67.68;103239.59;5073806;28;45945;-62
2023/01/24 09:15:27;;;;;;;;;49.25;39.00;;;;;3.87;67.41;103244.81;5074058;28;45500;-53
2023/01/24 09:17:53;;;;;;;;;60.00;44.00;;;;;3.84;68.38;103237.88;5073200;28;45858;-57
2023/01/24 09:20:18;;;;;;;;;50.50;43.00;;;;;3.90;67.90;103252.66;5073364;28;45401;-54
2023/01/24 09:22:44;;;;;;;;;49.50;37.50;;;;;3.90;67.93;103242.97;5073595;28;45666;-48
2023/01/24 09:25:09;;;;;;;;;55.25;41.75;;;;;3.93;68.06;103248.16;5073747;28;45475;-57
2023/01/24 09:27:40;;;;;;;;;39.75;27.00;;;;;3.98;67.45;103250.66;5073483;28;46187;-48
2023/01/24 09:30:06;;;;;;;;;62.25;40.75;;;;;3.96;68.00;103252.47;5073140;28;45518;-57
2023/01/24 09:32:31;;;;;;;;;49.00;37.00;;;;;3.96;67.69;103242.81;5073806;28;46412;-58
2023/01/24 09:34:57;;;;;;;;;65.00;44.25;;;;;3.99;68.19;103252.38;5073709;28;45365;-55
2023/01/24 09:37:23;;;;;;;;;47.00;37.00;;;;;3.97;67.71;103238.41;5072848;28;52716;-58
2023/01/24 09:39:48;;;;;;;;;58.25;40.50;;;;;3.99;67.14;103253.25;5073216;28;45587;-58
2023/01/24 09:42:44;;;;;;;;;53.00;40.00;;;;;4.00;67.33;103255.00;5073208;28;45526;-60
2023/01/24 09:45:29;;;;;;;;;47.00;41.00;;;;;4.07;67.29;103254.81;5071497;28;45474;-55
2023/01/24 09:48:01;;;;;;;;;47.00;42.75;;;;;4.10;67.75;103257.38;5071616;28;47121;-57
2023/01/24 09:50:31;;;;;;;;;59.25;44.75;;;;;4.10;68.24;103257.38;5072900;28;45376;-55
2023/01/24 09:52:57;;;;;;;;;55.25;43.50;;;;;4.03;68.26;103246.13;5073594;28;45468;-56
2023/01/24 09:55:37;;;;;;;;;51.75;33.50;;;;;4.15;67.70;103261.59;5073447;28;45389;-53
2023/01/24 09:58:18;;;;;;;;;44.00;35.75;;;;;4.15;67.22;103272.13;5073350;28;45499;-59
2023/01/24 10:00:44;;;;;;;;;51.00;43.00;;;;;4.13;67.96;103271.31;5073171;28;45428;-53
2023/01/24 10:03:18;;;;;;;;;61.50;45.00;;;;;4.11;67.61;103275.75;5073240;28;45580;-52
2023/01/24 10:05:54;;;;;;;;;59.00;43.75;;;;;4.07;67.00;103268.84;5073424;28;45510;-54
2023/01/24 10:08:50;;;;;;;;;50.00;41.75;;;;;4.14;67.57;103275.69;5073068;28;46812;-55
2023/01/24 10:11:49;;;;;;;;;56.00;45.25;;;;;4.17;67.07;103272.97;5072565;28;45363;-49
2023/01/24 10:14:53;;;;;;;;;57.00;43.75;;;;;4.17;67.05;103274.69;5072953;28;45439;-47
2023/01/24 10:17:44;;;;;;;;;49.50;40.50;;;;;4.19;67.71;103281.66;5073253;28;45554;-55
2023/01/24 10:20:31;;;;;;;;;55.50;39.75;;;;;4.21;67.68;103271.97;5072657;28;45679;-53
2023/01/24 10:22:59;;;;;;;;;54.50;42.75;;;;;4.27;67.65;103277.97;5072965;28;45425;-51
2023/01/24 10:25:28;;;;;;;;;55.75;43.50;;;;;4.29;67.76;103271.72;5073024;28;45519;-58
2023/01/24 10:27:57;;;;;;;;;54.00;41.75;;;;;4.31;67.38;103264.66;5072915;28;45487;-47
2023/01/24 10:30:49;;;;;;;;;61.25;40.25;;;;;4.35;67.21;103262.78;5072519;28;46097;-59
2023/01/24 10:33:18;;;;;;;;;45.00;38.00;;;;;4.36;67.14;103256.59;5072281;28;45560;-50
2023/01/24 10:35:58;;;;;;;;;52.25;39.00;;;;;4.38;67.47;103265.31;5072575;28;45505;-56
2023/01/24 10:38:25;;;;;;;;;53.75;41.00;;;;;4.41;67.96;103260.81;5072269;28;45604;-58
2023/01/24 10:40:56;;;;;;;;;49.75;36.75;;;;;4.42;67.05;103257.28;5072159;28;47086;-50
2023/01/24 10:43:25;;;;;;;;;62.25;45.00;;;;;4.44;67.34;103259.88;5072250;28;45475;-55
2023/01/24 10:46:12;;;;;;;;;52.75;34.00;;;;;4.49;67.12;103263.25;5072759;28;45485;-55
2023/01/24 10:48:52;;;;;;;;;55.25;37.25;;;;;4.49;66.90;103256.19;5076119;28;45297;-48
2023/01/24 10:51:20;;;;;;;;;47.50;41.50;;;;;4.55;67.47;103260.44;5076239;28;46004;-45
2023/01/24 10:53:47;;;;;;;;;44.75;41.75;;;;;4.54;67.21;103256.06;5075669;28;45528;-60
2023/01/24 10:56:19;;;;;;;;;44.75;26.25;;;;;4.55;66.73;103246.38;5076203;28;45489;-57
2023/01/24 10:59:02;;;;;;;;;52.75;37.25;;;;;4.60;67.56;103252.41;5076071;28;45470;-57
2023/01/24 11:01:38;;;;;;;;;54.25;38.50;;;;;4.62;66.97;103243.50;5075609;28;47428;-58
2023/01/24 11:04:42;;;;;;;;;55.75;42.50;;;;;4.67;67.12;103240.72;5075852;28;45511;-57
2023/01/24 11:07:27;;;;;;;;;46.50;35.50;;;;;4.68;67.55;103234.56;4990629;28;45554;-59
2023/01/24 11:09:52;;;;;;;;;55.25;46.75;;;;;4.69;66.95;103239.78;4993688;28;45578;-47
2023/01/24 11:12:20;;;;;;;;;61.50;46.25;;;;;4.74;67.04;103242.28;4993262;28;45994;-52
2023/01/24 11:14:48;;;;;;;;;65.25;50.50;;;;;4.79;66.31;103236.84;4993269;28;45422;-52
2023/01/24 11:17:32;;;;;;;;;65.00;46.25;;;;;4.83;66.51;103231.44;4992875;28;45406;-56
2023/01/24 11:20:02;;;;;;;;;74.75;52.50;;;;;4.89;66.83;103233.88;4992995;28;46071;-54
2023/01/24 11:22:35;;;;;;;;;54.25;43.50;;;;;4.90;66.81;103234.75;4992905;28;46240;-60
2023/01/24 11:25:03;;;;;;;;;49.50;38.25;;;;;4.96;66.75;103237.19;4992018;28;45412;-55
2023/01/24 11:27:31;;;;;;;;;60.75;46.50;;;;;4.98;66.56;103236.22;4993204;28;46537;-60
2023/01/24 11:30:17;;;;;;;;;58.50;45.50;;;;;4.99;65.67;103213.34;4993419;28;45377;-59
2023/01/24 11:32:55;;;;;;;;;54.50;43.25;;;;;4.91;66.12;103197.75;4992943;28;46169;-50
2023/01/24 11:35:27;;;;;;;;;56.25;39.75;;;;;4.98;66.58;103214.25;4992767;28;45661;-56
2023/01/24 11:38:13;;;;;;;;;56.25;43.50;;;;;5.00;66.40;103226.47;5033072;28;45530;-60
2023/01/24 11:41:00;;;;;;;;;59.50;42.75;;;;;5.01;66.72;103216.78;5076423;28;45941;-54
2023/01/24 11:43:38;;;;;;;;;50.00;39.00;;;;;4.98;66.27;103199.28;5075693;28;46784;-58
2023/01/24 11:46:12;;;;;;;;;50.50;39.25;;;;;5.09;66.17;103216.53;5075375;28;45380;-56
2023/01/24 11:48:48;;;;;;;;;52.00;41.25;;;;;5.11;65.98;103202.38;5073935;28;45381;-58
2023/01/24 11:51:16;;;;;;;;;53.00;40.75;;;;;5.13;66.59;103213.75;5075366;28;45520;-50
2023/01/24 11:54:09;;;;;;;;;52.50;37.75;;;;;5.11;66.41;103205.03;5075209;28;46098;-62
2023/01/24 11:56:46;;;;;;;;;51.75;35.50;;;;;5.12;66.00;103206.75;5075005;28;45453;-62
2023/01/24 11:59:50;;;;;;;;;47.25;36.25;;;;;5.13;66.12;103212.88;5073520;28;45678;-62
2023/01/24 12:02:53;;;;;;;;;54.75;39.25;;;;;5.12;66.58;103201.47;5075315;28;45491;-60